createdAt,value
2023-01-17T00:00:16.394Z,19.55
2023-01-17T00:05:29.101Z,19.77
2023-01-17T00:10:25.427Z,19.74
2023-01-17T00:15:20.467Z,19.73
2023-01-17T00:20:33.795Z,19.67
2023-01-17T00:25:51.336Z,19.69
2023-01-17T00:30:45.260Z,19.66
2023-01-17T00:35:38.216Z,19.64
2023-01-17T00:40:32.762Z,19.52
2023-01-17T00:45:45.034Z,19.60
2023-01-17T00:50:56.505Z,19.61
2023-01-17T01:02:19.041Z,19.47
2023-01-17T01:07:30.703Z,19.54
2023-01-17T01:12:42.835Z,19.57
2023-01-17T01:17:54.493Z,19.43
2023-01-17T01:23:06.025Z,19.57
2023-01-17T01:28:25.395Z,19.49
2023-01-17T01:33:21.338Z,19.54
2023-01-17T01:38:14.522Z,19.56
2023-01-17T01:43:12.530Z,19.60
2023-01-17T01:48:15.465Z,19.56
2023-01-17T01:53:08.668Z,19.37
2023-01-17T01:58:09.557Z,19.48
2023-01-17T02:03:08.495Z,19.51
2023-01-17T02:08:04.683Z,19.60
2023-01-17T02:12:57.521Z,19.38
2023-01-17T02:17:49.900Z,19.63
2023-01-17T02:23:10.026Z,19.61
2023-01-17T02:28:09.239Z,19.61
2023-01-17T02:33:26.768Z,19.61
2023-01-17T02:38:41.273Z,19.64
2023-01-17T02:43:36.193Z,19.64
2023-01-17T02:48:32.447Z,19.55
2023-01-17T02:53:34.608Z,19.60
2023-01-17T02:58:39.180Z,19.65
2023-01-17T03:03:43.948Z,19.52
2023-01-17T03:08:37.234Z,19.64
2023-01-17T03:13:31.538Z,19.56
2023-01-17T03:18:26.074Z,19.52
2023-01-17T03:23:19.257Z,19.64
2023-01-17T03:28:12.111Z,19.66
2023-01-17T03:33:06.260Z,19.55
2023-01-17T03:37:59.147Z,19.55
2023-01-17T03:42:53.390Z,19.54
2023-01-17T03:47:46.739Z,19.68
2023-01-17T03:52:40.260Z,19.64
2023-01-17T03:57:33.947Z,19.67
2023-01-17T04:02:26.829Z,19.58
2023-01-17T04:07:20.782Z,19.67
2023-01-17T04:12:13.447Z,19.52
2023-01-17T04:17:06.922Z,19.69
2023-01-17T04:22:00.164Z,19.60
2023-01-17T04:26:53.936Z,19.64
2023-01-17T04:31:48.874Z,19.69
2023-01-17T04:36:42.636Z,19.56
2023-01-17T04:41:34.795Z,19.46
2023-01-17T04:46:27.388Z,19.67
2023-01-17T04:51:20.555Z,19.71
2023-01-17T04:56:13.473Z,19.61
2023-01-17T05:01:08.559Z,19.69
2023-01-17T05:06:01.557Z,19.69
2023-01-17T05:10:54.478Z,19.68
2023-01-17T05:15:47.509Z,19.63
2023-01-17T05:20:40.886Z,19.62
2023-01-17T05:25:33.967Z,19.70
2023-01-17T05:30:28.909Z,19.69
2023-01-17T05:35:23.976Z,19.59
2023-01-17T05:40:23.101Z,19.66
2023-01-17T05:45:17.138Z,19.71
2023-01-17T05:50:11.661Z,19.67
2023-01-17T05:55:07.871Z,19.53
2023-01-17T06:00:00.820Z,19.59
2023-01-17T06:04:53.778Z,19.73
2023-01-17T06:09:47.500Z,19.58
2023-01-17T06:14:40.683Z,19.69
2023-01-17T06:19:32.416Z,19.67
2023-01-17T06:24:25.524Z,19.56
2023-01-17T06:29:18.592Z,19.67
2023-01-17T06:34:10.577Z,19.64
2023-01-17T06:39:03.906Z,19.65
2023-01-17T06:43:56.893Z,19.66
2023-01-17T06:48:49.699Z,19.64
2023-01-17T06:53:42.876Z,19.60
2023-01-17T06:58:36.159Z,19.61
2023-01-17T07:03:29.876Z,19.52
2023-01-17T07:08:22.974Z,19.58
2023-01-17T07:13:16.372Z,19.60
2023-01-17T07:18:08.871Z,19.62
2023-01-17T07:23:02.224Z,19.43
2023-01-17T07:27:58.263Z,19.62
2023-01-17T07:32:55.704Z,19.63
2023-01-17T07:37:50.347Z,19.62
2023-01-17T07:42:44.493Z,19.40
2023-01-17T07:47:37.353Z,19.47
2023-01-17T07:52:29.944Z,19.58
2023-01-17T07:57:23.209Z,19.51
2023-01-17T08:02:24.208Z,19.53
2023-01-17T08:07:16.706Z,19.57
2023-01-17T08:12:10.408Z,19.56
2023-01-17T08:17:32.366Z,19.54
2023-01-17T08:22:27.341Z,19.53
2023-01-17T08:27:19.944Z,19.36
2023-01-17T08:32:12.842Z,19.44
2023-01-17T08:37:05.267Z,19.59
2023-01-17T08:41:57.982Z,19.63
2023-01-17T08:46:51.278Z,19.62
2023-01-17T08:51:44.694Z,19.53
2023-01-17T08:56:38.614Z,19.61
2023-01-17T09:01:30.800Z,19.60
2023-01-17T09:06:23.905Z,19.58
2023-01-17T09:11:18.677Z,19.50
2023-01-17T09:16:11.506Z,19.35
2023-01-17T09:21:16.243Z,19.44
2023-01-17T09:26:15.305Z,19.51
2023-01-17T09:31:10.654Z,19.53
2023-01-17T09:36:06.251Z,19.33
2023-01-17T09:41:00.143Z,19.35
2023-01-17T09:45:53.141Z,19.17
2023-01-17T09:51:01.390Z,19.40
2023-01-17T09:56:04.383Z,19.26
2023-01-17T10:01:13.475Z,19.38
2023-01-17T10:06:43.867Z,19.42
2023-01-17T10:11:57.289Z,19.40
2023-01-17T10:17:16.485Z,19.39
2023-01-17T10:22:21.531Z,19.42
2023-01-17T10:27:24.946Z,19.44
2023-01-17T10:32:27.756Z,19.43
2023-01-17T10:37:42.415Z,19.42
2023-01-17T10:42:58.243Z,19.43
2023-01-17T10:48:20.432Z,19.29
2023-01-17T10:53:34.118Z,19.36
2023-01-17T10:58:26.416Z,19.43
2023-01-17T11:03:25.097Z,19.31
2023-01-17T11:08:20.922Z,19.31
2023-01-17T11:13:32.844Z,19.45
2023-01-17T11:18:32.174Z,19.42
2023-01-17T11:23:32.923Z,19.44
2023-01-17T11:28:37.719Z,19.48
2023-01-17T11:33:55.722Z,19.59
2023-01-17T11:39:06.477Z,19.55
2023-01-17T11:44:00.874Z,19.47
2023-01-17T11:48:56.615Z,19.46
2023-01-17T11:53:49.452Z,19.54
2023-01-17T11:58:43.511Z,19.36
2023-01-17T12:04:08.572Z,19.64
2023-01-17T12:09:23.553Z,19.50
2023-01-17T12:14:31.434Z,19.38
2023-01-17T12:20:05.807Z,19.47
2023-01-17T12:25:19.932Z,19.50
2023-01-17T12:30:15.608Z,19.47
2023-01-17T12:35:20.312Z,19.48
2023-01-17T12:40:22.030Z,19.48
2023-01-17T12:45:16.810Z,19.44
2023-01-17T12:50:21.608Z,19.47
2023-01-17T12:55:20.330Z,19.49
2023-01-17T13:00:23.570Z,19.50
2023-01-17T13:05:24.425Z,19.46
2023-01-17T13:10:32.219Z,19.48
2023-01-17T13:15:31.443Z,19.37
2023-01-17T13:20:32.168Z,19.51
2023-01-17T13:25:24.297Z,19.48
2023-01-17T13:30:29.269Z,19.46
2023-01-17T13:35:52.424Z,19.45
2023-01-17T13:40:51.210Z,19.38
2023-01-17T13:46:01.123Z,19.42
2023-01-17T13:50:59.687Z,19.47
2023-01-17T13:55:53.434Z,19.55
2023-01-17T14:00:46.242Z,19.52
2023-01-17T14:05:38.355Z,19.52
2023-01-17T14:11:09.912Z,19.54
2023-01-17T14:16:24.809Z,19.53
2023-01-17T14:21:24.965Z,19.51
2023-01-17T14:26:45.393Z,19.49
2023-01-17T14:31:38.330Z,19.32
2023-01-17T14:36:33.496Z,19.51
2023-01-17T14:41:29.443Z,19.37
2023-01-17T14:46:24.288Z,19.49
2023-01-17T14:51:22.962Z,19.48
2023-01-17T14:56:18.182Z,19.34
2023-01-17T15:01:18.613Z,19.37
2023-01-17T15:06:19.499Z,19.24
2023-01-17T15:11:26.802Z,19.45
2023-01-17T15:16:28.756Z,19.43
2023-01-17T15:21:24.567Z,19.32
2023-01-17T15:26:20.875Z,19.43
2023-01-17T15:31:17.132Z,19.45
2023-01-17T15:36:16.509Z,19.44
2023-01-17T15:41:35.068Z,19.45
2023-01-17T15:46:33.396Z,19.45
2023-01-17T15:51:34.700Z,19.29
2023-01-17T15:56:34.504Z,19.44
2023-01-17T16:01:29.553Z,19.19
2023-01-17T16:06:45.624Z,19.43
2023-01-17T16:11:38.511Z,19.38
2023-01-17T16:16:31.211Z,19.42
2023-01-17T16:21:27.079Z,19.40
2023-01-17T16:26:21.013Z,19.43
2023-01-17T16:31:13.369Z,19.39
2023-01-17T16:36:08.458Z,19.47
2023-01-17T16:41:04.915Z,19.51
2023-01-17T16:45:57.791Z,19.50
2023-01-17T16:50:53.479Z,19.39
2023-01-17T16:55:46.359Z,19.55
2023-01-17T17:00:40.748Z,19.55
2023-01-17T17:05:38.147Z,19.46
2023-01-17T17:10:31.991Z,19.60
2023-01-17T17:15:26.314Z,19.50
2023-01-17T17:20:19.801Z,19.64
2023-01-17T17:25:13.964Z,19.70
2023-01-17T17:30:09.801Z,19.66
2023-01-17T17:35:03.018Z,19.53
2023-01-17T17:39:59.019Z,19.59
2023-01-17T17:44:52.878Z,19.71
2023-01-17T17:49:46.009Z,19.73
2023-01-17T17:54:40.256Z,19.80
2023-01-17T17:59:33.244Z,19.66
2023-01-17T18:04:27.058Z,19.79
2023-01-17T18:09:19.604Z,19.80
2023-01-17T18:14:15.030Z,19.73
2023-01-17T18:19:19.631Z,19.81
2023-01-17T18:24:14.476Z,19.84
2023-01-17T18:29:09.230Z,19.76
2023-01-17T18:34:07.720Z,19.77
2023-01-17T18:39:00.858Z,19.84
2023-01-17T18:43:54.514Z,19.86
2023-01-17T18:48:48.911Z,19.75
2023-01-17T18:53:44.253Z,19.88
2023-01-17T18:58:44.401Z,19.76
2023-01-17T19:03:37.725Z,19.80
2023-01-17T19:08:31.690Z,19.80
2023-01-17T19:13:24.537Z,19.77
2023-01-17T19:18:17.004Z,19.71
2023-01-17T19:23:09.219Z,19.62
2023-01-17T19:28:02.425Z,19.77
2023-01-17T19:32:56.472Z,19.78
2023-01-17T19:37:51.247Z,19.77
2023-01-17T19:42:44.704Z,19.81
2023-01-17T19:47:38.081Z,19.65
2023-01-17T19:52:31.647Z,19.76
2023-01-17T19:57:27.150Z,19.78
2023-01-17T20:02:21.731Z,19.84
2023-01-17T20:07:15.627Z,19.81
2023-01-17T20:12:08.752Z,19.88
2023-01-17T20:17:02.410Z,19.87
2023-01-17T20:21:56.142Z,19.90
2023-01-17T20:26:48.599Z,19.92
2023-01-17T20:31:43.468Z,19.93
2023-01-17T20:36:37.870Z,19.82
2023-01-17T20:41:32.632Z,19.91
2023-01-17T20:46:32.683Z,19.80
2023-01-17T20:51:27.451Z,19.78
2023-01-17T20:56:19.824Z,19.75
2023-01-17T21:01:19.625Z,19.65
2023-01-17T21:06:17.101Z,19.77
2023-01-17T21:11:13.321Z,19.65
2023-01-17T21:16:08.876Z,19.65
2023-01-17T21:21:14.893Z,19.84
2023-01-17T21:26:10.599Z,19.79
2023-01-17T21:31:25.598Z,19.73
2023-01-17T21:36:19.625Z,19.65
2023-01-17T21:41:12.862Z,19.78
2023-01-17T21:46:06.396Z,19.78
2023-01-17T21:51:09.542Z,19.77
2023-01-17T21:56:22.213Z,19.67
2023-01-17T22:01:19.351Z,19.80
2023-01-17T22:06:13.636Z,19.78
2023-01-17T22:11:08.737Z,19.77
2023-01-17T22:16:03.342Z,19.64
2023-01-17T22:20:56.301Z,19.78
2023-01-17T22:25:48.943Z,19.78
2023-01-17T22:30:42.175Z,19.76
2023-01-17T22:35:35.695Z,19.65
2023-01-17T22:40:31.018Z,19.64
2023-01-17T22:45:25.110Z,19.71
2023-01-17T22:50:19.212Z,19.64
2023-01-17T22:55:12.763Z,19.77
2023-01-17T23:00:14.818Z,19.71
2023-01-17T23:05:12.136Z,19.72
2023-01-17T23:10:06.094Z,19.62
2023-01-17T23:15:18.220Z,19.62
2023-01-17T23:20:11.256Z,19.66
2023-01-17T23:25:13.920Z,19.75
2023-01-17T23:30:11.338Z,19.53
2023-01-17T23:35:05.504Z,19.63
2023-01-17T23:39:58.972Z,19.74
2023-01-17T23:44:52.261Z,19.65
2023-01-17T23:49:48.989Z,19.56
2023-01-17T23:54:42.837Z,19.76
2023-01-17T23:59:39.497Z,19.61
